sensor_id;sensor_type;location;lat;lon;timestamp;pressure;altitude;pressure_sealevel;temperature;humidity
56558;BME280;43358;50.356;12.456;2023-07-20T01:42:26;95126;;;20.1;80.1
56558;BME280;43358;50.356;12.456;2023-07-20T01:42:26;95125;;;20.1;80.1
56558;BME280;43358;50.356;12.456;2023-07-20T01:43:19;95172;;;14.6;90
56558;BME280;43358;50.356;12.456;2023-07-20T01:44:22;95172;;;14.6;90.1
56558;BME280;43358;50.356;12.456;2023-07-20T01:45:29;95171;;;14.5;90.3
56558;BME280;43358;50.356;12.456;2023-07-20T01:46:31;95172;;;14.5;90.4
56558;BME280;43358;50.356;12.456;2023-07-20T01:47:33;95171;;;14.5;90.4
56558;BME280;43358;50.356;12.456;2023-07-20T01:48:36;95170;;;14.4;90.4
56558;BME280;43358;50.356;12.456;2023-07-20T01:49:38;95175;;;14.5;90.4
56558;BME280;43358;50.356;12.456;2023-07-20T01:50:40;95172;;;14.4;90.7
56558;BME280;43358;50.356;12.456;2023-07-20T01:51:50;95173;;;14.4;90.7
56558;BME280;43358;50.356;12.456;2023-07-20T01:52:44;95173;;;14.4;90.6
56558;BME280;43358;50.356;12.456;2023-07-20T01:53:46;95171;;;14.4;90.4
56558;BME280;43358;50.356;12.456;2023-07-20T01:54:48;95171;;;14.4;90.4
56558;BME280;43358;50.356;12.456;2023-07-20T01:55:51;95169;;;14.4;90.3
56558;BME280;43358;50.356;12.456;2023-07-20T01:57:54;95170;;;14.4;90.3
56558;BME280;43358;50.356;12.456;2023-07-20T01:59:58;95165;;;14.4;90.2
56558;BME280;43358;50.356;12.456;2023-07-20T02:01:01;95168;;;14.4;90.3
56558;BME280;43358;50.356;12.456;2023-07-20T02:02:03;95168;;;14.4;90.6
56558;BME280;43358;50.356;12.456;2023-07-20T02:03:05;95169;;;14.4;90.3
56558;BME280;43358;50.356;12.456;2023-07-20T02:04:14;95169;;;14.4;90.5
56558;BME280;43358;50.356;12.456;2023-07-20T02:05:16;95169;;;14.4;90.6
56558;BME280;43358;50.356;12.456;2023-07-20T02:07:22;95166;;;14.4;90.7
56558;BME280;43358;50.356;12.456;2023-07-20T02:11:31;95167;;;14.4;91.1
56558;BME280;43358;50.356;12.456;2023-07-20T02:12:58;95165;;;14.4;91.2
56558;BME280;43358;50.356;12.456;2023-07-20T02:14:58;95162;;;14.4;91.1
56558;BME280;43358;50.356;12.456;2023-07-20T02:15:58;95164;;;14.4;91
56558;BME280;43358;50.356;12.456;2023-07-20T02:17:58;95170;;;14.3;91.1
56558;BME280;43358;50.356;12.456;2023-07-20T02:20:52;95168;;;14.3;91.1
56558;BME280;43358;50.356;12.456;2023-07-20T02:23:14;95167;;;14.3;90.7
56558;BME280;43358;50.356;12.456;2023-07-20T02:26:20;95169;;;14.3;90.6
56558;BME280;43358;50.356;12.456;2023-07-20T02:28:15;95169;;;14.3;90.5
56558;BME280;43358;50.356;12.456;2023-07-20T02:28:58;95169;;;14.3;90.6
56558;BME280;43358;50.356;12.456;2023-07-20T02:29:58;95165;;;14.3;90.5
56558;BME280;43358;50.356;12.456;2023-07-20T02:30:58;95168;;;14.3;90.6
56558;BME280;43358;50.356;12.456;2023-07-20T02:31:58;95169;;;14.3;90.5
56558;BME280;43358;50.356;12.456;2023-07-20T02:32:58;95168;;;14.3;90.6
56558;BME280;43358;50.356;12.456;2023-07-20T02:33:58;95170;;;14.2;90.8
56558;BME280;43358;50.356;12.456;2023-07-20T02:34:58;95168;;;14.2;90.7
56558;BME280;43358;50.356;12.456;2023-07-20T02:35:58;95169;;;14.2;90.6
56558;BME280;43358;50.356;12.456;2023-07-20T02:36:58;95172;;;14.2;90.7
56558;BME280;43358;50.356;12.456;2023-07-20T02:37:58;95173;;;14.2;90.8
56558;BME280;43358;50.356;12.456;2023-07-20T02:38:58;95176;;;14.2;90.9
56558;BME280;43358;50.356;12.456;2023-07-20T02:39:58;95179;;;14.2;90.8
56558;BME280;43358;50.356;12.456;2023-07-20T02:40:58;95183;;;14.2;90.7
56558;BME280;43358;50.356;12.456;2023-07-20T02:41:58;95186;;;14.2;90.8
56558;BME280;43358;50.356;12.456;2023-07-20T02:42:58;95187;;;14.1;90.9
56558;BME280;43358;50.356;12.456;2023-07-20T02:43:58;95187;;;14.1;90.9
56558;BME280;43358;50.356;12.456;2023-07-20T02:44:59;95188;;;14.1;90.9
56558;BME280;43358;50.356;12.456;2023-07-20T02:46:01;95187;;;14.1;91.1
56558;BME280;43358;50.356;12.456;2023-07-20T02:48:06;95184;;;14.1;91.3
56558;BME280;43358;50.356;12.456;2023-07-20T02:49:08;95185;;;14.1;91.2
56558;BME280;43358;50.356;12.456;2023-07-20T02:50:10;95183;;;14.1;91.3
56558;BME280;43358;50.356;12.456;2023-07-20T02:51:12;95181;;;14.1;91.7
56558;BME280;43358;50.356;12.456;2023-07-20T02:52:15;95181;;;14.1;91.6
56558;BME280;43358;50.356;12.456;2023-07-20T02:53:17;95181;;;14;91.6
56558;BME280;43358;50.356;12.456;2023-07-20T02:54:19;95183;;;14;91.5
56558;BME280;43358;50.356;12.456;2023-07-20T02:55:21;95182;;;14;91.4
56558;BME280;43358;50.356;12.456;2023-07-20T02:56:43;95182;;;14;91.3
56558;BME280;43358;50.356;12.456;2023-07-20T02:57:28;95187;;;14;91.2
56558;BME280;43358;50.356;12.456;2023-07-20T02:58:30;95188;;;14;91.1
56558;BME280;43358;50.356;12.456;2023-07-20T02:59:32;95189;;;14;91.2
56558;BME280;43358;50.356;12.456;2023-07-20T03:00:34;95190;;;14;91.1
56558;BME280;43358;50.356;12.456;2023-07-20T03:02:39;95189;;;14;91
56558;BME280;43358;50.356;12.456;2023-07-20T03:03:41;95187;;;14;90.8
56558;BME280;43358;50.356;12.456;2023-07-20T03:04:43;95187;;;14;90.8
56558;BME280;43358;50.356;12.456;2023-07-20T03:05:45;95187;;;14;90.5
56558;BME280;43358;50.356;12.456;2023-07-20T03:06:47;95186;;;14;90.6
56558;BME280;43358;50.356;12.456;2023-07-20T03:07:49;95185;;;14;90.6
56558;BME280;43358;50.356;12.456;2023-07-20T03:08:51;95189;;;14;90.6
56558;BME280;43358;50.356;12.456;2023-07-20T03:09:55;95185;;;14;90.6
56558;BME280;43358;50.356;12.456;2023-07-20T03:10:59;95187;;;14;90.5
56558;BME280;43358;50.356;12.456;2023-07-20T03:12:00;95191;;;14;90.6
56558;BME280;43358;50.356;12.456;2023-07-20T03:14:05;95190;;;13.9;90.7
56558;BME280;43358;50.356;12.456;2023-07-20T03:15:08;95187;;;13.9;90.7
56558;BME280;43358;50.356;12.456;2023-07-20T03:16:10;95191;;;13.9;90.6
56558;BME280;43358;50.356;12.456;2023-07-20T03:17:11;95188;;;13.9;90.7
56558;BME280;43358;50.356;12.456;2023-07-20T03:18:13;95189;;;13.9;90.7
56558;BME280;43358;50.356;12.456;2023-07-20T03:19:16;95189;;;13.9;90.6
56558;BME280;43358;50.356;12.456;2023-07-20T03:20:18;95186;;;13.8;90.6
56558;BME280;43358;50.356;12.456;2023-07-20T03:21:20;95191;;;13.8;90.7
56558;BME280;43358;50.356;12.456;2023-07-20T03:22:22;95193;;;13.8;90.6
56558;BME280;43358;50.356;12.456;2023-07-20T03:23:24;95198;;;13.8;90.6
56558;BME280;43358;50.356;12.456;2023-07-20T03:24:26;95197;;;13.8;90.9
56558;BME280;43358;50.356;12.456;2023-07-20T03:25:28;95197;;;13.8;91
56558;BME280;43358;50.356;12.456;2023-07-20T03:26:30;95196;;;13.8;90.9
56558;BME280;43358;50.356;12.456;2023-07-20T03:27:32;95196;;;13.7;90.9
56558;BME280;43358;50.356;12.456;2023-07-20T03:28:35;95197;;;13.7;90.9
56558;BME280;43358;50.356;12.456;2023-07-20T03:29:36;95196;;;13.7;90.9
56558;BME280;43358;50.356;12.456;2023-07-20T03:30:38;95192;;;13.7;90.8
56558;BME280;43358;50.356;12.456;2023-07-20T03:31:41;95190;;;13.7;90.9
56558;BME280;43358;50.356;12.456;2023-07-20T03:32:43;95195;;;13.7;90.8
56558;BME280;43358;50.356;12.456;2023-07-20T03:33:45;95195;;;13.7;90.8
56558;BME280;43358;50.356;12.456;2023-07-20T03:34:47;95194;;;13.7;90.8
56558;BME280;43358;50.356;12.456;2023-07-20T03:37:07;95197;;;13.6;90.3
56558;BME280;43358;50.356;12.456;2023-07-20T03:38:09;95195;;;13.6;90.4
56558;BME280;43358;50.356;12.456;2023-07-20T03:39:58;95190;;;13.6;90.3
56558;BME280;43358;50.356;12.456;2023-07-20T03:40:59;95192;;;13.6;90.2
56558;BME280;43358;50.356;12.456;2023-07-20T03:41:58;95192;;;13.6;90.2
56558;BME280;43358;50.356;12.456;2023-07-20T03:42:58;95194;;;13.6;90.4
56558;BME280;43358;50.356;12.456;2023-07-20T03:43:58;95194;;;13.6;90.4
56558;BME280;43358;50.356;12.456;2023-07-20T03:44:58;95196;;;13.6;90.3
56558;BME280;43358;50.356;12.456;2023-07-20T03:45:58;95195;;;13.6;90.3
56558;BME280;43358;50.356;12.456;2023-07-20T03:46:58;95194;;;13.6;90.3
56558;BME280;43358;50.356;12.456;2023-07-20T03:47:58;95194;;;13.5;90.5
56558;BME280;43358;50.356;12.456;2023-07-20T03:49:45;95198;;;13.5;90.5
56558;BME280;43358;50.356;12.456;2023-07-20T03:50:47;95199;;;13.5;90.5
56558;BME280;43358;50.356;12.456;2023-07-20T03:51:49;95200;;;13.5;90.5
56558;BME280;43358;50.356;12.456;2023-07-20T03:52:51;95201;;;13.5;90.8
56558;BME280;43358;50.356;12.456;2023-07-20T03:53:53;95200;;;13.5;90.8
56558;BME280;43358;50.356;12.456;2023-07-20T03:54:58;95203;;;13.5;90.8
56558;BME280;43358;50.356;12.456;2023-07-20T03:55:58;95202;;;13.5;91.1
56558;BME280;43358;50.356;12.456;2023-07-20T03:57:00;95203;;;13.4;91.3
56558;BME280;43358;50.356;12.456;2023-07-20T03:58:19;95205;;;13.4;91
56558;BME280;43358;50.356;12.456;2023-07-20T04:00:22;95209;;;13.4;90.9
56558;BME280;43358;50.356;12.456;2023-07-20T04:01:24;95213;;;13.4;91
56558;BME280;43358;50.356;12.456;2023-07-20T04:02:26;95214;;;13.4;91
56558;BME280;43358;50.356;12.456;2023-07-20T04:03:28;95214;;;13.4;91
56558;BME280;43358;50.356;12.456;2023-07-20T04:04:30;95216;;;13.4;91
56558;BME280;43358;50.356;12.456;2023-07-20T04:05:32;95215;;;13.4;91
56558;BME280;43358;50.356;12.456;2023-07-20T04:06:34;95213;;;13.4;90.9
56558;BME280;43358;50.356;12.456;2023-07-20T04:08:15;95212;;;13.4;90.9
56558;BME280;43358;50.356;12.456;2023-07-20T04:08:39;95210;;;13.4;90.7
56558;BME280;43358;50.356;12.456;2023-07-20T04:09:58;95211;;;13.4;90.3
56558;BME280;43358;50.356;12.456;2023-07-20T04:11:00;95212;;;13.4;90.4
56558;BME280;43358;50.356;12.456;2023-07-20T04:11:58;95212;;;13.5;90.3
56558;BME280;43358;50.356;12.456;2023-07-20T04:12:58;95218;;;13.5;90.5
56558;BME280;43358;50.356;12.456;2023-07-20T04:13:58;95217;;;13.5;90.6
56558;BME280;43358;50.356;12.456;2023-07-20T04:15:03;95217;;;13.5;90.6
56558;BME280;43358;50.356;12.456;2023-07-20T04:15:58;95220;;;13.5;90.6
56558;BME280;43358;50.356;12.456;2023-07-20T04:16:58;95223;;;13.5;90.8
56558;BME280;43358;50.356;12.456;2023-07-20T04:19:00;95222;;;13.5;90.6
56558;BME280;43358;50.356;12.456;2023-07-20T04:20:20;95224;;;13.5;90.6
56558;BME280;43358;50.356;12.456;2023-07-20T04:21:05;95225;;;13.5;90.8
56558;BME280;43358;50.356;12.456;2023-07-20T04:22:07;95227;;;13.5;90.6
56558;BME280;43358;50.356;12.456;2023-07-20T04:23:09;95226;;;13.5;90.8
56558;BME280;43358;50.356;12.456;2023-07-20T04:24:11;95226;;;13.5;90.6
56558;BME280;43358;50.356;12.456;2023-07-20T04:25:13;95226;;;13.5;90.6
56558;BME280;43358;50.356;12.456;2023-07-20T04:26:15;95227;;;13.5;90.6
56558;BME280;43358;50.356;12.456;2023-07-20T04:27:58;95223;;;13.6;90.6
56558;BME280;43358;50.356;12.456;2023-07-20T04:28:58;95225;;;13.6;90.5
56558;BME280;43358;50.356;12.456;2023-07-20T04:29:58;95228;;;13.6;90.8
56558;BME280;43358;50.356;12.456;2023-07-20T04:31:09;95227;;;13.6;91
56558;BME280;43358;50.356;12.456;2023-07-20T04:31:58;95228;;;13.5;91.1
56558;BME280;43358;50.356;12.456;2023-07-20T04:32:58;95231;;;13.5;91.3
56558;BME280;43358;50.356;12.456;2023-07-20T04:33:58;95230;;;13.5;91.1
56558;BME280;43358;50.356;12.456;2023-07-20T04:34:58;95227;;;13.5;91.2
56558;BME280;43358;50.356;12.456;2023-07-20T04:35:58;95227;;;13.5;91.2
56558;BME280;43358;50.356;12.456;2023-07-20T04:36:58;95232;;;13.5;91.1
56558;BME280;43358;50.356;12.456;2023-07-20T04:37:58;95234;;;13.5;91
56558;BME280;43358;50.356;12.456;2023-07-20T04:38:58;95232;;;13.5;91
56558;BME280;43358;50.356;12.456;2023-07-20T04:39:58;95235;;;13.5;91.1
56558;BME280;43358;50.356;12.456;2023-07-20T04:40:58;95229;;;13.5;91.3
56558;BME280;43358;50.356;12.456;2023-07-20T04:41:58;95230;;;13.5;91.3
56558;BME280;43358;50.356;12.456;2023-07-20T04:42:58;95227;;;13.5;91.4
56558;BME280;43358;50.356;12.456;2023-07-20T04:43:58;95232;;;13.5;91.3
56558;BME280;43358;50.356;12.456;2023-07-20T04:46:04;95231;;;13.5;91.6
56558;BME280;43358;50.356;12.456;2023-07-20T04:47:08;95233;;;13.6;91.8
56558;BME280;43358;50.356;12.456;2023-07-20T04:48:11;95234;;;13.6;91.9
56558;BME280;43358;50.356;12.456;2023-07-20T04:49:12;95231;;;13.6;91.7
56558;BME280;43358;50.356;12.456;2023-07-20T04:50:15;95232;;;13.7;91.5
56558;BME280;43358;50.356;12.456;2023-07-20T04:51:17;95230;;;13.7;91.5
56558;BME280;43358;50.356;12.456;2023-07-20T04:53:13;95235;;;13.7;91.4
56558;BME280;43358;50.356;12.456;2023-07-20T04:53:26;95233;;;13.7;91.4
56558;BME280;43358;50.356;12.456;2023-07-20T04:54:28;95234;;;13.8;91.1
56558;BME280;43358;50.356;12.456;2023-07-20T04:55:31;95236;;;13.8;91
56558;BME280;43358;50.356;12.456;2023-07-20T04:57:34;95234;;;13.8;90.8
56558;BME280;43358;50.356;12.456;2023-07-20T04:59:39;95238;;;13.9;91.2
56558;BME280;43358;50.356;12.456;2023-07-20T05:00:41;95238;;;13.9;91.2
56558;BME280;43358;50.356;12.456;2023-07-20T05:01:43;95238;;;13.9;91.1
56558;BME280;43358;50.356;12.456;2023-07-20T05:02:45;95239;;;14;91
56558;BME280;43358;50.356;12.456;2023-07-20T05:03:47;95242;;;14;91.2
56558;BME280;43358;50.356;12.456;2023-07-20T05:04:49;95240;;;14.1;91.3
56558;BME280;43358;50.356;12.456;2023-07-20T05:06:09;95237;;;14.1;91.6
56558;BME280;43358;50.356;12.456;2023-07-20T05:06:53;95239;;;14.1;91
56558;BME280;43358;50.356;12.456;2023-07-20T05:07:55;95241;;;14.2;90.7
56558;BME280;43358;50.356;12.456;2023-07-20T05:08:57;95239;;;14.2;90.8
56558;BME280;43358;50.356;12.456;2023-07-20T05:10:00;95239;;;14.2;90.8
56558;BME280;43358;50.356;12.456;2023-07-20T05:11:02;95242;;;14.2;90.7
56558;BME280;43358;50.356;12.456;2023-07-20T05:12:05;95239;;;14.2;91
56558;BME280;43358;50.356;12.456;2023-07-20T05:13:06;95239;;;14.3;91
56558;BME280;43358;50.356;12.456;2023-07-20T05:14:09;95233;;;14.3;90.8
56558;BME280;43358;50.356;12.456;2023-07-20T05:15:12;95235;;;14.3;91.1
56558;BME280;43358;50.356;12.456;2023-07-20T05:17:17;95238;;;14.4;90.6
56558;BME280;43358;50.356;12.456;2023-07-20T05:18:19;95238;;;14.4;90.9
56558;BME280;43358;50.356;12.456;2023-07-20T05:19:21;95234;;;14.4;91
56558;BME280;43358;50.356;12.456;2023-07-20T05:20:37;95234;;;14.5;91.1
56558;BME280;43358;50.356;12.456;2023-07-20T05:21:27;95238;;;14.5;91
56558;BME280;43358;50.356;12.456;2023-07-20T05:22:29;95240;;;14.5;91.3
56558;BME280;43358;50.356;12.456;2023-07-20T05:23:31;95242;;;14.5;91.4
56558;BME280;43358;50.356;12.456;2023-07-20T05:24:33;95241;;;14.5;91.4
56558;BME280;43358;50.356;12.456;2023-07-20T05:25:35;95237;;;14.6;91.3
56558;BME280;43358;50.356;12.456;2023-07-20T05:26:37;95239;;;14.6;91.2
56558;BME280;43358;50.356;12.456;2023-07-20T05:45:58;95236;;;14.7;90.9
56558;BME280;43358;50.356;12.456;2023-07-20T05:45:58;95240;;;14.6;90.8
56558;BME280;43358;50.356;12.456;2023-07-20T05:46:02;95240;;;15.3;90.3
56558;BME280;43358;50.356;12.456;2023-07-20T05:47:04;95242;;;15.3;90
56558;BME280;43358;50.356;12.456;2023-07-20T05:48:06;95238;;;15.3;90.1
56558;BME280;43358;50.356;12.456;2023-07-20T05:49:08;95240;;;15.4;89.9
56558;BME280;43358;50.356;12.456;2023-07-20T05:50:10;95239;;;15.4;88.2
56558;BME280;43358;50.356;12.456;2023-07-20T05:51:12;95241;;;15.5;88.9
56558;BME280;43358;50.356;12.456;2023-07-20T05:52:58;95239;;;15.5;89.1
56558;BME280;43358;50.356;12.456;2023-07-20T05:53:58;95243;;;15.6;88.9
56558;BME280;43358;50.356;12.456;2023-07-20T05:54:58;95246;;;15.6;88.6
56558;BME280;43358;50.356;12.456;2023-07-20T05:56:28;95243;;;15.7;88.5
56558;BME280;43358;50.356;12.456;2023-07-20T05:56:58;95243;;;15.7;88.5
56558;BME280;43358;50.356;12.456;2023-07-20T05:57:58;95242;;;15.8;88.9
56558;BME280;43358;50.356;12.456;2023-07-20T05:58:58;95242;;;15.8;87.5
56558;BME280;43358;50.356;12.456;2023-07-20T05:59:58;95241;;;15.8;87.8
56558;BME280;43358;50.356;12.456;2023-07-20T06:00:58;95242;;;15.9;88.3
56558;BME280;43358;50.356;12.456;2023-07-20T06:03:56;95244;;;16.1;87.8
56558;BME280;43358;50.356;12.456;2023-07-20T06:04:58;95248;;;16.2;87.5
56558;BME280;43358;50.356;12.456;2023-07-20T06:06:01;95246;;;16.3;86.7
56558;BME280;43358;50.356;12.456;2023-07-20T06:08:05;95248;;;16.4;86.3
56558;BME280;43358;50.356;12.456;2023-07-20T06:09:07;95248;;;16.5;85.7
56558;BME280;43358;50.356;12.456;2023-07-20T06:10:09;95249;;;16.5;85.4
56558;BME280;43358;50.356;12.456;2023-07-20T06:11:11;95248;;;16.6;85.1
56558;BME280;43358;50.356;12.456;2023-07-20T06:14:17;95255;;;16.7;84.8
56558;BME280;43358;50.356;12.456;2023-07-20T06:15:27;95253;;;16.7;84.5
56558;BME280;43358;50.356;12.456;2023-07-20T06:16:21;95251;;;16.7;84.6
56558;BME280;43358;50.356;12.456;2023-07-20T06:17:23;95253;;;16.7;84.8
56558;BME280;43358;50.356;12.456;2023-07-20T06:18:25;95252;;;16.7;85.2
56558;BME280;43358;50.356;12.456;2023-07-20T06:20:29;95252;;;16.7;85.6
56558;BME280;43358;50.356;12.456;2023-07-20T06:21:31;95252;;;16.7;86
56558;BME280;43358;50.356;12.456;2023-07-20T06:22:33;95251;;;16.6;86.2
56558;BME280;43358;50.356;12.456;2023-07-20T06:23:36;95251;;;16.6;85.9
56558;BME280;43358;50.356;12.456;2023-07-20T06:24:59;95250;;;16.6;85.9
56558;BME280;43358;50.356;12.456;2023-07-20T06:25:58;95250;;;16.6;85.9
56558;BME280;43358;50.356;12.456;2023-07-20T06:26:58;95252;;;16.6;85.9
56558;BME280;43358;50.356;12.456;2023-07-20T06:27:58;95248;;;16.6;85.8
56558;BME280;43358;50.356;12.456;2023-07-20T06:28:58;95245;;;16.6;85.8
56558;BME280;43358;50.356;12.456;2023-07-20T06:30:00;95244;;;16.7;85.5
56558;BME280;43358;50.356;12.456;2023-07-20T06:31:03;95246;;;16.6;85.7
56558;BME280;43358;50.356;12.456;2023-07-20T06:32:05;95246;;;16.6;86.1
56558;BME280;43358;50.356;12.456;2023-07-20T06:33:07;95245;;;16.5;86.2
56558;BME280;43358;50.356;12.456;2023-07-20T06:34:09;95241;;;16.5;86.1
56558;BME280;43358;50.356;12.456;2023-07-20T06:35:11;95242;;;16.5;85.9
56558;BME280;43358;50.356;12.456;2023-07-20T06:36:15;95238;;;16.5;86.1
56558;BME280;43358;50.356;12.456;2023-07-20T06:37:16;95239;;;16.5;86.2
56558;BME280;43358;50.356;12.456;2023-07-20T06:38:18;95238;;;16.5;86.4
56558;BME280;43358;50.356;12.456;2023-07-20T06:39:34;95238;;;16.5;86.2
56558;BME280;43358;50.356;12.456;2023-07-20T06:40:35;95235;;;16.6;86
56558;BME280;43358;50.356;12.456;2023-07-20T06:41:37;95238;;;16.7;85.5
56558;BME280;43358;50.356;12.456;2023-07-20T06:42:39;95239;;;16.8;85.6
56558;BME280;43358;50.356;12.456;2023-07-20T06:43:41;95241;;;16.8;85.2
56558;BME280;43358;50.356;12.456;2023-07-20T06:44:43;95241;;;16.8;85.4
56558;BME280;43358;50.356;12.456;2023-07-20T06:45:50;95242;;;16.9;85
56558;BME280;43358;50.356;12.456;2023-07-20T06:46:49;95240;;;16.9;85
56558;BME280;43358;50.356;12.456;2023-07-20T06:50:59;95244;;;16.9;83.5
56558;BME280;43358;50.356;12.456;2023-07-20T06:51:59;95251;;;17;83.4
56558;BME280;43358;50.356;12.456;2023-07-20T06:52:59;95249;;;17;83.3
56558;BME280;43358;50.356;12.456;2023-07-20T06:53:59;95249;;;17;83.4
56558;BME280;43358;50.356;12.456;2023-07-20T13:18:23;95238;;;19.9;69.2
56558;BME280;43358;50.356;12.456;2023-07-20T13:18:23;95235;;;19.9;68.9
56558;BME280;43358;50.356;12.456;2023-07-20T13:18:59;95216;;;21.4;66.6
56558;BME280;43358;50.356;12.456;2023-07-20T13:19:59;95217;;;21.3;67.2
56558;BME280;43358;50.356;12.456;2023-07-20T13:20:59;95217;;;21.2;66.9
56558;BME280;43358;50.356;12.456;2023-07-20T13:22:20;95222;;;21.1;68.1
56558;BME280;43358;50.356;12.456;2023-07-20T13:23:06;95226;;;21;68.3
56558;BME280;43358;50.356;12.456;2023-07-20T13:24:10;95226;;;20.9;68.1
56558;BME280;43358;50.356;12.456;2023-07-20T13:25:14;95229;;;20.8;67.7
56558;BME280;43358;50.356;12.456;2023-07-20T13:26:19;95229;;;20.8;69.6
56558;BME280;43358;50.356;12.456;2023-07-20T13:27:22;95228;;;20.7;69.7
56558;BME280;43358;50.356;12.456;2023-07-20T13:28:26;95230;;;20.6;69.8
56558;BME280;43358;50.356;12.456;2023-07-20T13:29:30;95235;;;20.5;70.2
56558;BME280;43358;50.356;12.456;2023-07-20T13:30:34;95233;;;20.5;70
56558;BME280;43358;50.356;12.456;2023-07-20T13:32:12;95236;;;20.4;71.8
56558;BME280;43358;50.356;12.456;2023-07-20T13:32:59;95237;;;20.3;72.3
56558;BME280;43358;50.356;12.456;2023-07-20T13:35:59;95238;;;20.2;73.2
56558;BME280;43358;50.356;12.456;2023-07-20T13:37:04;95236;;;20.3;74.3
56558;BME280;43358;50.356;12.456;2023-07-20T13:38:08;95237;;;20.4;73.3
56558;BME280;43358;50.356;12.456;2023-07-20T13:39:12;95232;;;20.5;73.7
56558;BME280;43358;50.356;12.456;2023-07-20T13:40:16;95227;;;20.5;74.2
56558;BME280;43358;50.356;12.456;2023-07-20T13:43:28;95225;;;20.6;73.4
56558;BME280;43358;50.356;12.456;2023-07-20T13:45:35;95227;;;20.7;73
56558;BME280;43358;50.356;12.456;2023-07-20T13:46:39;95227;;;20.6;73.7
56558;BME280;43358;50.356;12.456;2023-07-20T13:49:51;95227;;;20.6;73.7
56558;BME280;43358;50.356;12.456;2023-07-20T13:50:55;95228;;;20.6;73.5
56558;BME280;43358;50.356;12.456;2023-07-20T13:54:07;95239;;;20.4;73.7
56558;BME280;43358;50.356;12.456;2023-07-20T13:55:11;95238;;;20.4;74.9
56558;BME280;43358;50.356;12.456;2023-07-20T13:56:59;95243;;;20.4;74.4
56558;BME280;43358;50.356;12.456;2023-07-20T13:58:41;95238;;;20.5;74.5
56558;BME280;43358;50.356;12.456;2023-07-20T13:59:32;95242;;;20.5;75.5
56558;BME280;43358;50.356;12.456;2023-07-20T14:00:36;95240;;;20.5;74.9
56558;BME280;43358;50.356;12.456;2023-07-20T14:02:44;95240;;;20.6;73.9
56558;BME280;43358;50.356;12.456;2023-07-20T14:03:48;95241;;;20.6;74.8
56558;BME280;43358;50.356;12.456;2023-07-20T14:04:52;95245;;;20.6;74
56558;BME280;43358;50.356;12.456;2023-07-20T14:05:56;95244;;;20.6;75.1
56558;BME280;43358;50.356;12.456;2023-07-20T14:07:00;95244;;;20.6;74.6
56558;BME280;43358;50.356;12.456;2023-07-20T14:08:05;95243;;;20.6;74.2
56558;BME280;43358;50.356;12.456;2023-07-20T14:10:12;95252;;;20.5;75.2
56558;BME280;43358;50.356;12.456;2023-07-20T14:11:59;95257;;;20.5;74
56558;BME280;43358;50.356;12.456;2023-07-20T14:12:59;95259;;;20.6;74.2
56558;BME280;43358;50.356;12.456;2023-07-20T14:13:59;95263;;;20.5;74.4
56558;BME280;43358;50.356;12.456;2023-07-20T14:14:59;95277;;;20.5;76.3
56558;BME280;43358;50.356;12.456;2023-07-20T14:15:59;95281;;;20.4;78.1
56558;BME280;43358;50.356;12.456;2023-07-20T14:17:59;95282;;;20.3;78.1
56558;BME280;43358;50.356;12.456;2023-07-20T14:18:59;95285;;;20.2;79.4
56558;BME280;43358;50.356;12.456;2023-07-20T14:21:56;95283;;;20.1;79.7
56558;BME280;43358;50.356;12.456;2023-07-20T14:23:01;95280;;;19.7;82.1
56558;BME280;43358;50.356;12.456;2023-07-20T14:25:09;95283;;;19.7;80.6
56558;BME280;43358;50.356;12.456;2023-07-20T14:27:50;95284;;;19.6;80.4
56558;BME280;43358;50.356;12.456;2023-07-20T14:28:54;95280;;;19.6;80.6
56558;BME280;43358;50.356;12.456;2023-07-20T14:29:56;95280;;;19.7;80.6
56558;BME280;43358;50.356;12.456;2023-07-20T14:32:05;95282;;;19.7;78.4
56558;BME280;43358;50.356;12.456;2023-07-20T14:34:11;95277;;;19.7;78.7
56558;BME280;43358;50.356;12.456;2023-07-20T14:35:18;95273;;;19.7;77.7
56558;BME280;43358;50.356;12.456;2023-07-20T14:38:59;95275;;;19.8;76.9
56558;BME280;43358;50.356;12.456;2023-07-20T14:44:11;95269;;;19.9;75.5
56558;BME280;43358;50.356;12.456;2023-07-20T14:44:59;95263;;;19.9;77
56558;BME280;43358;50.356;12.456;2023-07-20T14:46:59;95264;;;20;74.7
56558;BME280;43358;50.356;12.456;2023-07-20T14:48:18;95267;;;19.9;74.5
56558;BME280;43358;50.356;12.456;2023-07-20T14:49:22;95267;;;20;73.6
56558;BME280;43358;50.356;12.456;2023-07-20T14:50:26;95265;;;20;74.1
56558;BME280;43358;50.356;12.456;2023-07-20T14:51:30;95261;;;20;76.4
56558;BME280;43358;50.356;12.456;2023-07-20T14:52:34;95259;;;19.9;73.4
56558;BME280;43358;50.356;12.456;2023-07-20T14:54:59;95261;;;19.8;73.4
56558;BME280;43358;50.356;12.456;2023-07-20T14:55:00;95260;;;19.8;74.3
56558;BME280;43358;50.356;12.456;2023-07-20T15:00:00;95255;;;19.6;74.6
56558;BME280;43358;50.356;12.456;2023-07-20T15:03:23;95256;;;19.7;73.6
56558;BME280;43358;50.356;12.456;2023-07-20T15:04:13;95252;;;19.7;74.1
56558;BME280;43358;50.356;12.456;2023-07-20T15:06:17;95252;;;19.7;74.3
56558;BME280;43358;50.356;12.456;2023-07-20T15:07:20;95247;;;19.6;75
56558;BME280;43358;50.356;12.456;2023-07-20T15:08:24;95250;;;19.6;75.4
56558;BME280;43358;50.356;12.456;2023-07-20T15:09:28;95248;;;19.7;74.5
56558;BME280;43358;50.356;12.456;2023-07-20T15:11:35;95240;;;19.7;74.7
56558;BME280;43358;50.356;12.456;2023-07-20T15:12:37;95244;;;19.7;75.7
56558;BME280;43358;50.356;12.456;2023-07-20T15:13:39;95241;;;19.7;76.8
56558;BME280;43358;50.356;12.456;2023-07-20T15:15:03;95241;;;19.8;74.1
56558;BME280;43358;50.356;12.456;2023-07-20T15:15:59;95245;;;19.8;74.1
56558;BME280;43358;50.356;12.456;2023-07-20T15:16:59;95239;;;19.9;74.5
56558;BME280;43358;50.356;12.456;2023-07-20T15:18:59;95236;;;19.9;73.9
56558;BME280;43358;50.356;12.456;2023-07-20T15:20:01;95238;;;19.8;73.5
56558;BME280;43358;50.356;12.456;2023-07-20T15:22:10;95237;;;19.9;74.3
56558;BME280;43358;50.356;12.456;2023-07-20T15:24:16;95238;;;19.9;74
56558;BME280;43358;50.356;12.456;2023-07-20T15:26:23;95238;;;19.9;74
56558;BME280;43358;50.356;12.456;2023-07-20T15:27:27;95246;;;20;74
56558;BME280;43358;50.356;12.456;2023-07-20T15:28:29;95235;;;20;72.5